x

Western Caribbean - 195 Nm Wsw Of Negril Jamiaca (42057) Wave Buoy

2:50 - Sat 20th Dec 2014 All times are UTC.

  • Sig Wave height 4.3ft
  • Swell Direction
  • Peak Period 6s
  • Average Period 5s
  • Wind
    16mph, 18mph gusts
  • Sea Temp 82°f
  • Ar Temp 81°f
  • Sea Pressure 1014.5mb

More Historic Weather Station data

Upgrade to MSW Pro to gain access to the past 30 days of data for over 8000 Wavebouys and Weather Stations around the globe.

Join Pro

Comparision Forecast

View Surf forecast
   
Sáb 12/20 2:50 4.5ft 6s 5s 16 18 mph 1014.5mb 82f 81f
1:50 4.5ft 6s 5s 16 18 mph 1013.9mb 82f 82f
12:50 4.5ft 6s 5s 16 18 mph 1013.2mb 82f 82f
Sex 12/19 11:50 5ft 7s 5s 13 16 mph 1013.1mb 82f 82f
10:50 5ft 7s 5s 13 16 mph 1013mb 82f 82f
9:50 5ft 7s 5s 16 18 mph 1012.5mb 82f 82f
8:50 4.5ft 7s 5s 13 18 mph 1012.5mb 83f 82f
7:50 5ft 7s 5s 18 20 mph 1012.6mb 83f 82f
6:50 5ft 7s 5s 20 25 mph 1012.9mb 83f 81f
5:50 5ft 7s 5s 18 20 mph 1013.9mb 83f 82f
4:50 4.5ft 7s 5s 18 22 mph 1014.8mb 83f 81f
3:50 4.5ft 7s 5s 16 20 mph 1015.4mb 83f 80f
2:50 4.5ft 7s 5s 16 18 mph 1015.1mb 83f 82f
1:50 4.5ft 7s 5s 13 18 mph 1014.7mb 83f 82f
12:50 4.5ft 6s 5s 13 16 mph 1013.8mb 83f 81f
11:50 4ft 7s 5s 16 20 mph 1013.1mb 83f 81f
10:50 4.5ft 7s 5s 16 18 mph 1012.7mb 83f 82f
9:50 4.5ft 7s 5s 11 16 mph 1012.5mb 83f 81f
8:50 4.5ft 7s 5s 16 18 mph 1012.2mb 83f 79f
7:50 4ft 7s 5s 13 16 mph 1012.4mb 83f 80f
6:50 4ft 7s 5s 13 18 mph 1012.8mb 83f 82f
5:50 5ft 7s 5s 13 16 mph 1013.6mb 83f 81f
4:50 4.5ft 7s 5s 16 20 mph 1014mb 83f 81f
3:50 5ft 7s 5s 18 20 mph 1014mb 83f 81f
2:50 4.5ft 7s 5s 20 27 mph 1013.9mb 83f 80f
1:50 4.5ft 8s 5s 20 25 mph 1013.6mb 83f 80f
12:50 4.5ft 7s 5s 25 29 mph 1013mb 83f 79f
Qui 12/18 11:50 4.5ft 7s 5s 20 25 mph 1012.6mb 83f 81f
10:50 5ft 7s 5s 20 25 mph 1012.6mb 83f 80f
9:50 5ft 7s 5s 22 27 mph 1012.3mb 83f 80f
8:50 5.5ft 7s 5s 22 27 mph 1012.2mb 83f 79f
7:50 6ft 8s 5s 25 27 mph 1012.8mb 83f 77f
6:50 5.5ft 8s 5s 20 25 mph 1013.1mb 82f 82f
5:50 5.5ft 7s 5s 18 20 mph 1014mb 82f 82f
4:50 6ft 7s 5s 11 18 mph 1015.4mb 82f 80f
3:50 6ft 7s 5s 18 20 mph 1015.8mb 82f 82f
2:50 5.5ft 8s 5s 18 22 mph 1015.9mb 82f 82f
1:50 6ft 8s 6s 22 31 mph 1015mb 82f 77f
12:50 6ft 7s 5s 22 29 mph 1014.2mb 82f 80f
11:50 6ft 8s 6s 20 25 mph 1013.4mb 82f 81f
10:50 5ft 8s 5s 20 25 mph 1013mb 82f 80f
9:50 5ft 8s 5s 18 22 mph 1012.9mb 82f 81f
8:50 4.5ft 7s 5s 18 22 mph 1012.7mb 82f 80f
7:50 5ft 6s 5s 18 20 mph 1013.1mb 82f 79f
6:50 4.5ft 6s 5s 13 18 mph 1014.1mb 82f 81f
5:50 4ft 7s 5s 18 22 mph 1014.5mb 82f 78f
4:50 4ft 6s 5s 11 13 mph 1014.9mb 82f 78f
3:50 4.5ft 7s 5s 16 22 mph 1014.9mb 82f 79f
2:50 4.5ft 7s 5s 9 13 mph 1015.5mb 82f 76f
1:50 5ft 7s 5s 20 25 mph 1015.2mb 82f 78f
12:50 5.5ft 7s 5s 16 27 mph 1014.5mb 82f 77f
Qua 12/17 11:50 6ft 7s 5s 18 22 mph 1013.9mb 83f 78f
10:50 6ft 6s 5s 20 22 mph 1013.5mb 83f 78f
9:50 6.5ft 6s 6s 20 25 mph 1013.1mb 83f 79f
8:50 7ft 6s 6s 22 29 mph 1012.8mb 83f 80f
7:50 7ft 7s 6s 22 27 mph 1013.1mb 82f 81f
6:50 5.5ft 6s 5s 22 27 mph 1013.8mb 82f 81f
5:50 5ft 7s 5s 20 25 mph 1014.9mb 83f 81f
4:50 6ft 7s 5s 20 27 mph 1016.2mb 83f 81f
3:50 5.5ft 7s 5s 22 27 mph 1017mb 83f 81f
2:50 6ft 7s 5s 22 25 mph 1017.2mb 83f 81f
1:50 6.5ft 7s 5s 22 27 mph 1016.8mb 83f 80f
12:50 7ft 7s 5s 22 27 mph 1015.8mb 83f 80f
11:50 6ft 7s 5s 25 29 mph 1015.1mb 83f 80f
10:50 6.5ft 7s 5s 25 29 mph 1015.1mb 83f 80f
9:50 6.5ft 8s 5s 25 29 mph 1014.9mb 83f 80f
8:50 7ft 7s 5s 25 31 mph 1014.5mb 83f 80f
7:50 7ft 6s 5s 25 31 mph 1014.7mb 83f 80f
6:50 6ft 8s 5s 25 29 mph 1015.5mb 83f 81f
5:50 6ft 7s 5s 22 27 mph 1016.2mb 83f 80f
4:50 6ft 6s 5s 22 25 mph 1016.5mb 83f 81f
3:50 6ft 8s 5s 22 27 mph 1016.6mb 83f 81f
2:50 6ft 6s 5s 22 27 mph 1016.7mb 83f 81f
1:50 6ft 8s 5s 25 29 mph 1016.3mb 83f 81f
12:50 6ft 8s 5s 25 29 mph 1015.8mb 83f 81f
Ter 12/16 11:50 6.5ft 8s 5s 25 29 mph 1014.9mb 83f 80f
10:50 6.5ft 7s 6s 25 29 mph 1014.6mb 83f 80f
9:50 6.5ft 7s 6s 22 27 mph 1014.2mb 83f 80f
8:50 6ft 6s 5s 22 27 mph 1014mb 83f 80f
7:50 6ft 7s 5s 22 25 mph 1014mb 83f 80f
6:50 6ft 6s 5s 22 27 mph 1014.3mb 83f 80f
5:50 5.5ft 6s 5s 20 25 mph 1015mb 83f 81f
4:50 5.5ft 6s 5s 22 25 mph 1015.8mb 83f 81f
3:50 5.5ft 7s 5s 20 25 mph 1016.2mb 82f 81f
2:50 5.5ft 7s 5s 22 25 mph 1016.1mb 82f 81f
1:50 6ft 6s 5s 20 22 mph 1015.8mb 82f 80f
12:50 5.5ft 6s 5s 20 22 mph 1015mb 82f 80f
11:50 5ft 6s 5s 20 25 mph 1014.2mb 82f 80f
10:50 5ft 6s 5s 16 20 mph 1013.9mb 82f 81f
9:50 5.5ft 6s 5s 20 22 mph 1013.1mb 82f 80f
8:50 5ft 5s 5s 20 25 mph 1012.8mb 82f 80f
7:50 5ft 6s 5s 20 25 mph 1012.8mb 82f 79f
6:50 5ft 6s 5s 20 25 mph 1013.3mb 83f 80f
5:50 4.5ft 6s 5s 20 25 mph 1013.7mb 83f 80f
4:50 4.5ft 6s 5s 18 22 mph 1014.2mb 83f 80f